createdAt,value
2022-09-15T00:02:25.653Z,16.20
2022-09-15T00:05:12.158Z,16.20
2022-09-15T00:07:57.645Z,16.20
2022-09-15T00:10:56.335Z,16.20
2022-09-15T00:13:42.080Z,16.20
2022-09-15T00:16:31.079Z,16.20
2022-09-15T00:19:16.883Z,16.20
2022-09-15T00:22:02.865Z,16.20
2022-09-15T00:24:49.336Z,16.20
2022-09-15T00:27:35.203Z,16.20
2022-09-15T00:30:20.838Z,16.20
2022-09-15T00:33:06.485Z,16.20
2022-09-15T00:35:53.539Z,16.20
2022-09-15T00:38:39.546Z,16.20
2022-09-15T00:41:25.627Z,16.20
2022-09-15T00:44:20.274Z,16.20
2022-09-15T00:47:19.319Z,16.20
2022-09-15T00:50:10.737Z,16.20
2022-09-15T00:53:00.375Z,16.10
2022-09-15T00:55:48.865Z,16.10
2022-09-15T00:58:43.836Z,16.10
2022-09-15T01:01:32.343Z,16.10
2022-09-15T01:04:18.048Z,16.10
2022-09-15T01:07:07.772Z,16.10
2022-09-15T01:09:58.818Z,16.00
2022-09-15T01:12:44.660Z,16.00
2022-09-15T01:15:37.482Z,16.00
2022-09-15T01:18:29.731Z,16.00
2022-09-15T01:21:36.656Z,15.90
2022-09-15T01:24:25.187Z,15.90
2022-09-15T01:27:42.043Z,15.90
2022-09-15T01:30:34.944Z,15.90
2022-09-15T01:33:35.326Z,15.90
2022-09-15T01:36:46.986Z,15.80
2022-09-15T01:39:43.129Z,15.80
2022-09-15T01:42:30.179Z,15.80
2022-09-15T01:45:24.704Z,15.70
2022-09-15T01:48:11.566Z,15.70
2022-09-15T01:51:02.261Z,15.70
2022-09-15T01:53:49.659Z,15.70
2022-09-15T01:56:38.772Z,15.70
2022-09-15T01:59:24.396Z,15.80
2022-09-15T02:02:29.012Z,15.80
2022-09-15T02:05:32.267Z,15.70
2022-09-15T02:08:28.767Z,15.70
2022-09-15T02:11:20.761Z,15.80
2022-09-15T02:14:35.286Z,15.80
2022-09-15T02:17:22.091Z,15.80
2022-09-15T02:20:16.083Z,15.80
2022-09-15T02:23:32.817Z,15.90
2022-09-15T02:26:21.398Z,15.90
2022-09-15T02:29:09.931Z,15.90
2022-09-15T02:32:03.713Z,15.90
2022-09-15T02:34:55.494Z,16.00
2022-09-15T02:37:41.383Z,16.00
2022-09-15T02:40:28.818Z,16.00
2022-09-15T02:43:17.160Z,16.00
2022-09-15T02:46:02.886Z,16.10
2022-09-15T02:48:48.448Z,16.00
2022-09-15T02:51:34.127Z,16.00
2022-09-15T02:54:20.106Z,16.00
2022-09-15T02:57:06.735Z,16.00
2022-09-15T03:00:11.221Z,16.00
2022-09-15T03:02:57.506Z,15.90
2022-09-15T03:05:42.883Z,15.90
2022-09-15T03:08:28.540Z,15.80
2022-09-15T03:11:15.479Z,15.70
2022-09-15T03:14:03.715Z,15.70
2022-09-15T03:16:49.372Z,15.70
2022-09-15T03:19:34.847Z,15.60
2022-09-15T03:22:20.373Z,15.60
2022-09-15T03:25:07.368Z,15.60
2022-09-15T03:27:53.151Z,15.60
2022-09-15T03:30:38.805Z,15.70
2022-09-15T03:33:25.087Z,15.70
2022-09-15T03:36:10.771Z,15.70
2022-09-15T03:39:00.718Z,15.70
2022-09-15T03:41:46.567Z,15.70
2022-09-15T03:44:32.203Z,15.70
2022-09-15T03:47:17.558Z,15.70
2022-09-15T03:50:03.173Z,15.70
2022-09-15T03:52:48.539Z,15.70
2022-09-15T03:55:33.997Z,15.60
2022-09-15T03:58:19.687Z,15.60
2022-09-15T04:01:05.343Z,15.60
2022-09-15T04:03:51.467Z,15.60
2022-09-15T04:06:37.445Z,15.50
2022-09-15T04:09:22.955Z,15.50
2022-09-15T04:12:08.559Z,15.50
2022-09-15T04:14:54.091Z,15.60
2022-09-15T04:17:39.658Z,15.60
2022-09-15T04:20:25.384Z,15.60
2022-09-15T04:23:11.982Z,15.60
2022-09-15T04:26:03.055Z,15.60
2022-09-15T04:28:48.668Z,15.60
2022-09-15T04:31:34.527Z,15.70
2022-09-15T04:34:20.110Z,15.60
2022-09-15T04:37:05.705Z,15.60
2022-09-15T04:39:51.440Z,15.60
2022-09-15T04:42:37.049Z,15.60
2022-09-15T04:45:22.681Z,15.60
2022-09-15T04:48:08.096Z,15.50
2022-09-15T04:50:53.713Z,15.50
2022-09-15T04:53:39.313Z,15.50
2022-09-15T04:56:26.444Z,15.50
2022-09-15T04:59:19.390Z,15.50
2022-09-15T05:02:04.975Z,15.50
2022-09-15T05:04:51.574Z,15.50
2022-09-15T05:07:37.391Z,15.40
2022-09-15T05:10:23.112Z,15.40
2022-09-15T05:13:08.791Z,15.40
2022-09-15T05:15:54.496Z,15.30
2022-09-15T05:18:41.704Z,15.30
2022-09-15T05:21:27.726Z,15.30
2022-09-15T05:24:13.271Z,15.20
2022-09-15T05:26:59.018Z,15.20
2022-09-15T05:29:45.137Z,15.20
2022-09-15T05:32:30.936Z,15.20
2022-09-15T05:35:16.632Z,15.20
2022-09-15T05:38:02.096Z,15.10
2022-09-15T05:40:48.400Z,15.20
2022-09-15T05:43:35.919Z,15.10
2022-09-15T05:46:21.551Z,15.10
2022-09-15T05:49:08.776Z,15.10
2022-09-15T05:51:54.495Z,15.20
2022-09-15T05:54:40.294Z,15.10
2022-09-15T05:57:25.590Z,15.10
2022-09-15T06:00:11.714Z,15.10
2022-09-15T06:03:00.826Z,15.00
2022-09-15T06:05:46.477Z,15.00
2022-09-15T06:08:44.371Z,14.90
2022-09-15T06:11:31.713Z,14.90
2022-09-15T06:14:17.236Z,15.00
2022-09-15T06:17:02.839Z,15.00
2022-09-15T06:19:49.236Z,15.00
2022-09-15T06:22:34.960Z,15.00
2022-09-15T06:25:20.315Z,15.10
2022-09-15T06:28:05.834Z,15.00
2022-09-15T06:30:51.706Z,15.10
2022-09-15T06:33:37.819Z,15.00
2022-09-15T06:36:26.151Z,15.10
2022-09-15T06:39:12.079Z,15.10
2022-09-15T06:42:05.878Z,15.10
2022-09-15T06:44:53.689Z,15.10
2022-09-15T06:47:39.533Z,15.20
2022-09-15T06:50:25.566Z,15.20
2022-09-15T06:53:11.659Z,15.20
2022-09-15T06:56:02.920Z,15.20
2022-09-15T06:58:51.842Z,15.30
2022-09-15T07:01:37.760Z,15.30
2022-09-15T07:04:23.491Z,15.40
2022-09-15T07:07:09.221Z,15.50
2022-09-15T07:09:54.743Z,15.60
2022-09-15T07:12:40.307Z,15.70
2022-09-15T07:15:27.410Z,15.80
2022-09-15T07:18:12.790Z,15.80
2022-09-15T07:21:00.383Z,15.90
2022-09-15T07:23:46.885Z,15.80
2022-09-15T07:26:33.830Z,15.70
2022-09-15T07:29:19.145Z,15.80
2022-09-15T07:32:05.837Z,15.90
2022-09-15T07:34:56.517Z,16.10
2022-09-15T07:37:44.749Z,16.30
2022-09-15T07:40:31.707Z,16.50
2022-09-15T07:43:17.551Z,16.50
2022-09-15T07:46:04.045Z,16.40
2022-09-15T07:48:53.048Z,16.30
2022-09-15T07:51:38.781Z,16.20
2022-09-15T07:54:24.608Z,16.20
2022-09-15T07:57:10.314Z,16.10
2022-09-15T07:59:55.862Z,16.10
2022-09-15T08:02:41.575Z,16.10
2022-09-15T08:05:28.539Z,16.10
2022-09-15T08:08:14.155Z,16.20
2022-09-15T08:10:59.795Z,16.20
2022-09-15T08:13:49.675Z,16.20
2022-09-15T08:16:35.854Z,16.30
2022-09-15T08:19:21.801Z,16.40
2022-09-15T08:22:07.390Z,16.50
2022-09-15T08:24:52.995Z,16.50
2022-09-15T08:27:38.961Z,16.60
2022-09-15T08:30:24.592Z,16.70
2022-09-15T08:33:12.581Z,16.80
2022-09-15T08:36:07.092Z,16.90
2022-09-15T08:38:52.700Z,16.90
2022-09-15T08:41:42.660Z,16.90
2022-09-15T08:44:44.620Z,16.90
2022-09-15T08:47:36.767Z,16.90
2022-09-15T08:50:41.943Z,16.80
2022-09-15T08:53:34.225Z,16.90
2022-09-15T08:56:21.031Z,16.90
2022-09-15T08:59:08.668Z,16.80
2022-09-15T09:01:57.622Z,16.80
2022-09-15T09:05:10.943Z,16.70
2022-09-15T09:08:09.536Z,16.70
2022-09-15T09:10:57.836Z,16.70
2022-09-15T09:13:43.166Z,16.70
2022-09-15T09:17:00.123Z,16.80
2022-09-15T09:20:12.974Z,16.80
2022-09-15T09:22:59.378Z,16.90
2022-09-15T09:25:45.594Z,17.20
2022-09-15T09:28:38.863Z,17.40
2022-09-15T09:31:25.867Z,17.50
2022-09-15T09:34:36.516Z,17.40
2022-09-15T09:37:22.668Z,17.40
2022-09-15T09:40:13.846Z,17.20
2022-09-15T09:43:00.972Z,17.10
2022-09-15T09:45:46.317Z,17.10
2022-09-15T09:48:34.356Z,17.30
2022-09-15T09:51:39.902Z,17.30
2022-09-15T09:54:28.714Z,17.40
2022-09-15T09:57:14.279Z,17.50
2022-09-15T09:59:59.841Z,17.60
2022-09-15T10:02:47.266Z,17.70
2022-09-15T10:05:32.576Z,17.80
2022-09-15T10:08:20.153Z,17.80
2022-09-15T10:11:10.278Z,17.80
2022-09-15T10:13:56.495Z,17.70
2022-09-15T10:16:42.392Z,17.70
2022-09-15T10:19:34.529Z,17.60
2022-09-15T10:22:39.746Z,17.50
2022-09-15T10:25:44.166Z,17.50
2022-09-15T10:28:33.936Z,17.60
2022-09-15T10:31:32.785Z,17.80
2022-09-15T10:34:30.239Z,17.80
2022-09-15T10:37:47.971Z,17.80
2022-09-15T10:40:51.057Z,17.80
2022-09-15T10:43:39.918Z,17.80
2022-09-15T10:46:54.771Z,17.80
2022-09-15T10:50:01.403Z,17.80
2022-09-15T10:52:53.172Z,17.80
2022-09-15T10:56:10.810Z,18.00
2022-09-15T10:59:15.350Z,18.30
2022-09-15T11:02:22.899Z,18.50
2022-09-15T11:05:42.318Z,18.90
2022-09-15T11:09:08.846Z,18.80
2022-09-15T11:12:08.942Z,18.90
2022-09-15T11:15:25.333Z,18.90
2022-09-15T11:18:27.783Z,19.00
2022-09-15T11:21:38.599Z,19.30
2022-09-15T11:24:31.674Z,19.10
2022-09-15T11:27:29.515Z,18.80
2022-09-15T11:30:21.542Z,18.80
2022-09-15T11:33:28.970Z,18.50
2022-09-15T11:36:50.520Z,18.90
2022-09-15T11:39:45.808Z,19.20
2022-09-15T11:43:03.678Z,19.40
2022-09-15T11:45:54.529Z,19.90
2022-09-15T11:48:41.873Z,19.70
2022-09-15T11:51:34.347Z,19.50
2022-09-15T11:54:48.234Z,19.50
2022-09-15T11:57:47.550Z,19.50
2022-09-15T12:00:35.765Z,19.30
2022-09-15T12:03:50.646Z,18.80
2022-09-15T12:06:44.837Z,18.20
2022-09-15T12:09:31.607Z,17.70
2022-09-15T12:12:20.743Z,17.50
2022-09-15T12:15:07.188Z,17.30
2022-09-15T12:18:38.993Z,16.90
2022-09-15T12:21:38.922Z,16.90
2022-09-15T12:24:40.478Z,16.90
2022-09-15T12:27:26.340Z,17.00
2022-09-15T12:30:41.107Z,17.20
2022-09-15T12:33:58.610Z,17.30
2022-09-15T12:36:44.956Z,17.60
2022-09-15T12:39:37.358Z,17.90
2022-09-15T12:42:31.404Z,17.90
2022-09-15T12:45:27.183Z,17.80
2022-09-15T12:48:28.203Z,17.40
2022-09-15T12:51:22.483Z,17.10
2022-09-15T12:54:14.869Z,17.00
2022-09-15T12:57:01.383Z,16.80
2022-09-15T12:59:46.894Z,16.70
2022-09-15T13:02:45.284Z,16.60
2022-09-15T13:05:42.979Z,16.60
2022-09-15T13:08:28.543Z,16.60
2022-09-15T13:11:23.232Z,16.70
2022-09-15T13:14:20.774Z,16.70
2022-09-15T13:17:08.111Z,16.70
2022-09-15T13:19:59.754Z,16.70
2022-09-15T13:22:51.006Z,16.80
2022-09-15T13:25:40.504Z,16.70
2022-09-15T13:28:27.375Z,16.80
2022-09-15T13:31:16.386Z,16.80
2022-09-15T13:35:06.843Z,16.80
2022-09-15T13:38:23.768Z,16.90
2022-09-15T13:41:40.080Z,16.90
2022-09-15T13:44:31.719Z,17.00
2022-09-15T13:48:02.484Z,16.90
2022-09-15T13:51:00.459Z,16.70
2022-09-15T13:54:16.147Z,16.20
2022-09-15T13:57:02.689Z,16.00
2022-09-15T13:59:50.788Z,15.70
2022-09-15T14:02:36.863Z,15.60
2022-09-15T14:05:24.060Z,15.50
2022-09-15T14:08:15.251Z,15.50
2022-09-15T14:11:10.478Z,15.50
2022-09-15T14:13:58.001Z,15.60
2022-09-15T14:16:49.873Z,15.60
2022-09-15T14:19:37.611Z,15.80
2022-09-15T14:22:30.440Z,15.80
2022-09-15T14:25:17.076Z,15.90
2022-09-15T14:28:04.719Z,15.90
2022-09-15T14:30:51.020Z,16.00
2022-09-15T14:33:39.873Z,16.10
2022-09-15T14:36:31.844Z,16.30
2022-09-15T14:39:22.584Z,16.70
2022-09-15T14:42:24.089Z,17.10
2022-09-15T14:48:26.858Z,16.90
2022-09-15T14:51:25.436Z,16.70
2022-09-15T14:54:34.511Z,16.60
2022-09-15T14:57:26.498Z,16.80
2022-09-15T15:00:20.125Z,17.00
2022-09-15T15:03:21.945Z,17.00
2022-09-15T15:06:32.988Z,16.90
2022-09-15T15:09:47.017Z,16.80
2022-09-15T15:12:36.871Z,16.70
2022-09-15T15:15:22.951Z,16.50
2022-09-15T15:18:39.198Z,16.40
2022-09-15T15:21:41.685Z,16.30
2022-09-15T15:24:27.200Z,16.20
2022-09-15T15:27:34.894Z,16.10
2022-09-15T15:30:40.812Z,15.70
2022-09-15T15:33:28.034Z,15.20
2022-09-15T15:36:13.789Z,15.00
2022-09-15T15:39:03.969Z,14.80
2022-09-15T15:41:58.544Z,14.70
2022-09-15T15:45:06.464Z,14.70
2022-09-15T15:47:52.857Z,14.80
2022-09-15T15:50:38.797Z,15.20
2022-09-15T15:53:24.831Z,15.60
2022-09-15T15:56:13.092Z,15.90
2022-09-15T15:58:58.833Z,16.10
2022-09-15T16:01:46.757Z,16.10
2022-09-15T16:04:32.317Z,16.00
2022-09-15T16:07:20.774Z,15.90
2022-09-15T16:10:08.216Z,15.80
2022-09-15T16:12:53.954Z,15.70
2022-09-15T16:15:39.627Z,15.60
2022-09-15T16:18:25.142Z,15.40
2022-09-15T16:21:36.712Z,15.40
2022-09-15T16:24:22.472Z,15.10
2022-09-15T16:27:18.263Z,15.00
2022-09-15T16:30:04.992Z,14.90
2022-09-15T16:32:50.652Z,15.00
2022-09-15T16:36:06.746Z,15.20
2022-09-15T16:38:52.942Z,15.60
2022-09-15T16:41:39.488Z,16.10
2022-09-15T16:44:25.296Z,16.20
2022-09-15T16:47:11.043Z,16.30
2022-09-15T16:49:56.539Z,16.40
2022-09-15T16:52:42.101Z,16.30
2022-09-15T16:55:40.939Z,15.90
2022-09-15T16:58:26.863Z,15.70
2022-09-15T17:01:18.298Z,15.40
2022-09-15T17:04:09.280Z,15.30
2022-09-15T17:06:54.976Z,15.10
2022-09-15T17:09:41.020Z,15.00
2022-09-15T17:12:26.670Z,15.00
2022-09-15T17:15:30.536Z,14.90
2022-09-15T17:18:16.940Z,14.80
2022-09-15T17:21:02.567Z,14.70
2022-09-15T17:23:49.853Z,14.60
2022-09-15T17:26:35.491Z,14.60
2022-09-15T17:29:21.577Z,14.60
2022-09-15T17:32:08.840Z,14.50
2022-09-15T17:34:54.566Z,14.40
2022-09-15T17:37:40.275Z,14.30
2022-09-15T17:40:25.933Z,14.30
2022-09-15T17:43:17.575Z,14.20
2022-09-15T17:46:02.945Z,14.10
2022-09-15T17:48:48.441Z,14.00
2022-09-15T17:51:34.055Z,14.00
2022-09-15T17:54:20.017Z,14.10
2022-09-15T17:57:06.064Z,14.10
2022-09-15T17:59:51.865Z,14.00
2022-09-15T18:02:39.211Z,13.80
2022-09-15T18:05:29.510Z,13.70
2022-09-15T18:08:16.511Z,13.50
2022-09-15T18:11:03.103Z,13.40
2022-09-15T18:13:48.629Z,13.20
2022-09-15T18:16:34.171Z,13.20
2022-09-15T18:19:20.088Z,13.10
2022-09-15T18:22:05.314Z,13.10
2022-09-15T18:24:51.083Z,13.10
2022-09-15T18:27:36.725Z,13.00
2022-09-15T18:30:24.042Z,13.00
2022-09-15T18:33:27.840Z,13.00
2022-09-15T18:36:13.258Z,13.10
2022-09-15T18:38:58.563Z,13.10
2022-09-15T18:41:44.245Z,13.10
2022-09-15T18:44:29.629Z,13.10
2022-09-15T18:47:15.265Z,13.20
2022-09-15T18:50:00.940Z,13.20
2022-09-15T18:52:47.028Z,13.20
2022-09-15T18:55:32.560Z,13.20
2022-09-15T18:58:19.267Z,13.20
2022-09-15T19:01:05.952Z,13.30
2022-09-15T19:03:51.495Z,13.40
2022-09-15T19:06:37.014Z,13.40
2022-09-15T19:09:22.831Z,13.50
2022-09-15T19:12:08.231Z,13.60
2022-09-15T19:14:53.734Z,13.70
2022-09-15T19:17:40.378Z,13.70
2022-09-15T19:20:26.405Z,13.70
2022-09-15T19:23:12.248Z,13.70
2022-09-15T19:26:01.100Z,13.70
2022-09-15T19:28:50.545Z,13.70
2022-09-15T19:31:41.674Z,13.70
2022-09-15T19:34:28.045Z,13.70
2022-09-15T19:37:18.880Z,13.80
2022-09-15T19:40:08.670Z,13.80
2022-09-15T19:42:54.207Z,13.80
2022-09-15T19:45:43.491Z,13.80
2022-09-15T19:48:29.463Z,13.70
2022-09-15T19:51:15.964Z,13.70
2022-09-15T19:54:01.763Z,13.80
2022-09-15T19:56:47.643Z,13.80
2022-09-15T19:59:33.308Z,13.80
2022-09-15T20:02:19.996Z,13.70
2022-09-15T20:05:06.284Z,13.70
2022-09-15T20:07:51.875Z,13.70
2022-09-15T20:10:39.540Z,13.70
2022-09-15T20:13:25.424Z,13.70
2022-09-15T20:16:18.890Z,13.70
2022-09-15T20:19:04.951Z,13.70
2022-09-15T20:21:51.409Z,13.70
2022-09-15T20:24:37.111Z,13.70
2022-09-15T20:27:22.642Z,13.70
2022-09-15T20:30:08.915Z,13.70
2022-09-15T20:32:54.642Z,13.70
2022-09-15T20:35:39.839Z,13.60
2022-09-15T20:38:25.329Z,13.60
2022-09-15T20:41:13.257Z,13.60
2022-09-15T20:43:59.127Z,13.60
2022-09-15T20:46:44.442Z,13.60
2022-09-15T20:49:29.990Z,13.60
2022-09-15T20:52:15.922Z,13.60
2022-09-15T20:55:01.708Z,13.60
2022-09-15T20:57:46.941Z,13.60
2022-09-15T21:00:33.987Z,13.60
2022-09-15T21:03:19.523Z,13.60
2022-09-15T21:06:08.416Z,13.60
2022-09-15T21:08:55.664Z,13.60
2022-09-15T21:11:43.231Z,13.60
2022-09-15T21:14:29.275Z,13.60
2022-09-15T21:17:16.511Z,13.60
2022-09-15T21:20:02.755Z,13.70
2022-09-15T21:22:54.283Z,13.70
2022-09-15T21:25:39.975Z,13.70
2022-09-15T21:28:25.688Z,13.80
2022-09-15T21:31:19.189Z,13.80
2022-09-15T21:34:04.896Z,13.80
2022-09-15T21:36:51.757Z,13.70
2022-09-15T21:39:37.587Z,13.50
2022-09-15T21:42:24.008Z,13.30
2022-09-15T21:45:09.710Z,13.10
2022-09-15T21:47:55.702Z,13.00
2022-09-15T21:50:52.176Z,12.90
2022-09-15T21:53:38.182Z,12.80
2022-09-15T21:56:24.886Z,12.70
2022-09-15T21:59:11.015Z,12.70
2022-09-15T22:01:57.685Z,12.70
2022-09-15T22:04:42.967Z,12.80
2022-09-15T22:07:28.310Z,12.80
2022-09-15T22:10:13.848Z,12.80
2022-09-15T22:12:59.429Z,12.80
2022-09-15T22:15:44.903Z,12.80
2022-09-15T22:18:30.500Z,12.70
2022-09-15T22:21:21.130Z,12.70
2022-09-15T22:24:07.792Z,12.70
2022-09-15T22:26:53.401Z,12.70
2022-09-15T22:29:39.208Z,12.70
2022-09-15T22:32:26.403Z,12.70
2022-09-15T22:35:11.851Z,12.70
2022-09-15T22:37:57.467Z,12.70
2022-09-15T22:40:42.960Z,12.70
2022-09-15T22:43:28.561Z,12.60
2022-09-15T22:46:16.126Z,12.60
2022-09-15T22:49:02.312Z,12.60
2022-09-15T22:51:48.015Z,12.60
2022-09-15T22:54:33.629Z,12.60
2022-09-15T22:57:19.221Z,12.60
2022-09-15T23:00:05.519Z,12.60
2022-09-15T23:02:51.888Z,12.60
2022-09-15T23:05:37.968Z,12.60
2022-09-15T23:08:23.587Z,12.70
2022-09-15T23:11:11.972Z,12.60
2022-09-15T23:30:16.687Z,12.80
2022-09-15T23:33:02.361Z,12.80
2022-09-15T23:35:48.397Z,12.80
2022-09-15T23:38:38.490Z,12.70
2022-09-15T23:41:24.693Z,12.60
2022-09-15T23:44:10.363Z,12.50
2022-09-15T23:46:55.796Z,12.40
2022-09-15T23:49:41.172Z,12.40
2022-09-15T23:52:26.675Z,12.40
2022-09-15T23:55:12.088Z,12.30
2022-09-15T23:57:57.884Z,12.30
